sensor_id;sensor_type;location;lat;lon;timestamp;P1;durP1;ratioP1;P2;durP2;ratioP2
11269;SDS011;5692;48.956;9.200;2022-12-20T00:01:30;133.02;;;126.68;;
11269;SDS011;5692;48.956;9.200;2022-12-20T00:03:57;127.35;;;121.25;;
11269;SDS011;5692;48.956;9.200;2022-12-20T00:06:23;135.88;;;129.35;;
11269;SDS011;5692;48.956;9.200;2022-12-20T00:08:57;134.38;;;127.93;;
11269;SDS011;5692;48.956;9.200;2022-12-20T00:11:23;130.95;;;124.65;;
11269;SDS011;5692;48.956;9.200;2022-12-20T00:13:49;131.60;;;125.30;;
11269;SDS011;5692;48.956;9.200;2022-12-20T00:16:16;129.18;;;122.97;;
11269;SDS011;5692;48.956;9.200;2022-12-20T00:18:42;136.75;;;130.20;;
11269;SDS011;5692;48.956;9.200;2022-12-20T00:21:09;130.32;;;124.07;;
11269;SDS011;5692;48.956;9.200;2022-12-20T00:23:36;138.80;;;132.13;;
11269;SDS011;5692;48.956;9.200;2022-12-20T00:26:06;133.80;;;127.40;;
11269;SDS011;5692;48.956;9.200;2022-12-20T00:28:33;139.80;;;133.10;;
11269;SDS011;5692;48.956;9.200;2022-12-20T00:30:59;137.85;;;131.25;;
11269;SDS011;5692;48.956;9.200;2022-12-20T00:33:25;148.15;;;141.05;;
11269;SDS011;5692;48.956;9.200;2022-12-20T00:35:53;133.10;;;126.70;;
11269;SDS011;5692;48.956;9.200;2022-12-20T00:38:18;137.55;;;130.95;;
11269;SDS011;5692;48.956;9.200;2022-12-20T00:40:44;141.82;;;135.02;;
11269;SDS011;5692;48.956;9.200;2022-12-20T00:43:10;144.70;;;137.77;;
11269;SDS011;5692;48.956;9.200;2022-12-20T00:45:37;140.77;;;134.02;;
11269;SDS011;5692;48.956;9.200;2022-12-20T00:48:03;139.13;;;132.45;;
11269;SDS011;5692;48.956;9.200;2022-12-20T00:50:29;136.07;;;129.57;;
11269;SDS011;5692;48.956;9.200;2022-12-20T00:52:55;131.80;;;125.50;;
11269;SDS011;5692;48.956;9.200;2022-12-20T00:55:21;139.77;;;133.07;;
11269;SDS011;5692;48.956;9.200;2022-12-20T00:57:47;136.95;;;130.38;;
11269;SDS011;5692;48.956;9.200;2022-12-20T01:00:13;139.57;;;132.88;;
11269;SDS011;5692;48.956;9.200;2022-12-20T01:02:39;132.15;;;125.80;;
11269;SDS011;5692;48.956;9.200;2022-12-20T01:05:05;143.77;;;136.88;;
11269;SDS011;5692;48.956;9.200;2022-12-20T01:07:31;132.93;;;126.53;;
11269;SDS011;5692;48.956;9.200;2022-12-20T01:09:57;129.73;;;123.50;;
11269;SDS011;5692;48.956;9.200;2022-12-20T01:12:23;137.73;;;131.13;;
11269;SDS011;5692;48.956;9.200;2022-12-20T01:14:49;136.65;;;130.10;;
11269;SDS011;5692;48.956;9.200;2022-12-20T01:17:15;146.52;;;139.52;;
11269;SDS011;5692;48.956;9.200;2022-12-20T01:19:41;141.65;;;134.85;;
11269;SDS011;5692;48.956;9.200;2022-12-20T01:22:08;135.93;;;129.40;;
11269;SDS011;5692;48.956;9.200;2022-12-20T01:24:34;135.63;;;129.10;;
11269;SDS011;5692;48.956;9.200;2022-12-20T01:27:00;133.07;;;126.68;;
11269;SDS011;5692;48.956;9.200;2022-12-20T01:29:26;138.70;;;132.05;;
11269;SDS011;5692;48.956;9.200;2022-12-20T01:31:52;140.75;;;134.00;;
11269;SDS011;5692;48.956;9.200;2022-12-20T01:34:18;131.30;;;125.00;;
11269;SDS011;5692;48.956;9.200;2022-12-20T01:36:44;140.65;;;133.93;;
11269;SDS011;5692;48.956;9.200;2022-12-20T01:39:11;139.55;;;132.85;;
11269;SDS011;5692;48.956;9.200;2022-12-20T01:41:38;141.35;;;134.55;;
11269;SDS011;5692;48.956;9.200;2022-12-20T01:44:50;140.45;;;133.75;;
11269;SDS011;5692;48.956;9.200;2022-12-20T01:46:51;145.07;;;138.10;;
11269;SDS011;5692;48.956;9.200;2022-12-20T01:51:52;144.48;;;137.52;;
11269;SDS011;5692;48.956;9.200;2022-12-20T01:54:26;139.35;;;132.65;;
11269;SDS011;5692;48.956;9.200;2022-12-20T01:57:01;137.20;;;130.60;;
11269;SDS011;5692;48.956;9.200;2022-12-20T01:59:28;126.57;;;120.50;;
11269;SDS011;5692;48.956;9.200;2022-12-20T02:01:57;142.35;;;135.55;;
11269;SDS011;5692;48.956;9.200;2022-12-20T02:04:23;140.93;;;134.15;;
11269;SDS011;5692;48.956;9.200;2022-12-20T02:06:49;146.43;;;139.43;;
11269;SDS011;5692;48.956;9.200;2022-12-20T02:09:15;139.23;;;132.52;;
11269;SDS011;5692;48.956;9.200;2022-12-20T02:14:31;140.75;;;134.00;;
11269;SDS011;5692;48.956;9.200;2022-12-20T02:19:35;141.65;;;134.85;;
11269;SDS011;5692;48.956;9.200;2022-12-20T02:25:02;128.43;;;122.25;;
11269;SDS011;5692;48.956;9.200;2022-12-20T02:32:27;131.47;;;125.13;;
11269;SDS011;5692;48.956;9.200;2022-12-20T02:34:54;136.07;;;129.57;;
11269;SDS011;5692;48.956;9.200;2022-12-20T02:37:20;135.27;;;128.77;;
11269;SDS011;5692;48.956;9.200;2022-12-20T02:39:46;130.82;;;124.53;;
11269;SDS011;5692;48.956;9.200;2022-12-20T02:42:14;140.57;;;133.82;;
11269;SDS011;5692;48.956;9.200;2022-12-20T02:44:43;130.43;;;124.15;;
11269;SDS011;5692;48.956;9.200;2022-12-20T02:47:32;132.10;;;125.75;;
11269;SDS011;5692;48.956;9.200;2022-12-20T02:49:59;134.10;;;127.68;;
11269;SDS011;5692;48.956;9.200;2022-12-20T02:52:25;129.75;;;123.53;;
11269;SDS011;5692;48.956;9.200;2022-12-20T02:54:54;121.35;;;115.53;;
11269;SDS011;5692;48.956;9.200;2022-12-20T02:57:21;115.53;;;109.97;;
11269;SDS011;5692;48.956;9.200;2022-12-20T02:59:59;122.43;;;116.53;;
11269;SDS011;5692;48.956;9.200;2022-12-20T03:02:27;128.90;;;122.70;;
11269;SDS011;5692;48.956;9.200;2022-12-20T03:04:53;123.18;;;117.28;;
11269;SDS011;5692;48.956;9.200;2022-12-20T03:07:20;124.43;;;118.43;;
11269;SDS011;5692;48.956;9.200;2022-12-20T03:09:46;117.95;;;112.30;;
11269;SDS011;5692;48.956;9.200;2022-12-20T03:12:13;130.50;;;124.22;;
11269;SDS011;5692;48.956;9.200;2022-12-20T03:14:40;118.22;;;112.53;;
11269;SDS011;5692;48.956;9.200;2022-12-20T03:17:06;117.63;;;111.97;;
11269;SDS011;5692;48.956;9.200;2022-12-20T03:19:33;111.93;;;106.53;;
11269;SDS011;5692;48.956;9.200;2022-12-20T03:21:59;126.85;;;120.75;;
11269;SDS011;5692;48.956;9.200;2022-12-20T03:24:25;115.85;;;110.28;;
11269;SDS011;5692;48.956;9.200;2022-12-20T03:26:51;131.07;;;124.78;;
11269;SDS011;5692;48.956;9.200;2022-12-20T03:29:17;127.05;;;120.95;;
11269;SDS011;5692;48.956;9.200;2022-12-20T03:31:43;124.68;;;118.68;;
11269;SDS011;5692;48.956;9.200;2022-12-20T03:34:09;129.45;;;123.25;;
11269;SDS011;5692;48.956;9.200;2022-12-20T03:36:35;120.70;;;114.90;;
11269;SDS011;5692;48.956;9.200;2022-12-20T03:39:01;113.15;;;107.72;;
11269;SDS011;5692;48.956;9.200;2022-12-20T03:41:27;109.00;;;103.80;;
11269;SDS011;5692;48.956;9.200;2022-12-20T03:43:53;111.47;;;106.13;;
11269;SDS011;5692;48.956;9.200;2022-12-20T03:46:19;126.82;;;120.75;;
11269;SDS011;5692;48.956;9.200;2022-12-20T03:48:45;114.32;;;108.82;;
11269;SDS011;5692;48.956;9.200;2022-12-20T03:51:11;144.48;;;137.52;;
11269;SDS011;5692;48.956;9.200;2022-12-20T03:53:37;150.60;;;143.40;;
11269;SDS011;5692;48.956;9.200;2022-12-20T03:56:03;128.10;;;121.95;;
11269;SDS011;5692;48.956;9.200;2022-12-20T03:58:29;127.15;;;121.05;;
11269;SDS011;5692;48.956;9.200;2022-12-20T04:00:56;125.15;;;119.15;;
11269;SDS011;5692;48.956;9.200;2022-12-20T04:03:22;122.50;;;116.63;;
11269;SDS011;5692;48.956;9.200;2022-12-20T04:05:48;127.32;;;121.20;;
11269;SDS011;5692;48.956;9.200;2022-12-20T04:08:14;122.30;;;116.40;;
11269;SDS011;5692;48.956;9.200;2022-12-20T04:10:40;125.45;;;119.43;;
11269;SDS011;5692;48.956;9.200;2022-12-20T04:13:24;114.35;;;108.85;;
11269;SDS011;5692;48.956;9.200;2022-12-20T04:15:50;122.32;;;116.43;;
11269;SDS011;5692;48.956;9.200;2022-12-20T04:18:16;129.07;;;122.90;;
11269;SDS011;5692;48.956;9.200;2022-12-20T04:20:43;131.35;;;125.05;;
11269;SDS011;5692;48.956;9.200;2022-12-20T04:23:09;126.35;;;120.30;;
11269;SDS011;5692;48.956;9.200;2022-12-20T04:25:35;123.78;;;117.85;;
11269;SDS011;5692;48.956;9.200;2022-12-20T04:28:01;130.00;;;123.80;;
11269;SDS011;5692;48.956;9.200;2022-12-20T04:30:27;119.72;;;113.97;;
11269;SDS011;5692;48.956;9.200;2022-12-20T04:32:53;130.02;;;123.78;;
11269;SDS011;5692;48.956;9.200;2022-12-20T04:35:19;120.05;;;114.30;;
11269;SDS011;5692;48.956;9.200;2022-12-20T04:37:45;124.10;;;118.15;;
11269;SDS011;5692;48.956;9.200;2022-12-20T04:40:11;125.00;;;119.00;;
11269;SDS011;5692;48.956;9.200;2022-12-20T04:42:38;126.25;;;120.15;;
11269;SDS011;5692;48.956;9.200;2022-12-20T04:45:04;137.13;;;130.55;;
11269;SDS011;5692;48.956;9.200;2022-12-20T04:47:30;125.75;;;119.70;;
11269;SDS011;5692;48.956;9.200;2022-12-20T04:49:56;138.82;;;132.15;;
11269;SDS011;5692;48.956;9.200;2022-12-20T04:52:22;128.90;;;122.70;;
11269;SDS011;5692;48.956;9.200;2022-12-20T04:55:07;125.50;;;119.50;;
11269;SDS011;5692;48.956;9.200;2022-12-20T04:57:33;119.78;;;114.00;;
11269;SDS011;5692;48.956;9.200;2022-12-20T04:59:59;132.00;;;125.70;;
11269;SDS011;5692;48.956;9.200;2022-12-20T05:02:25;135.20;;;128.70;;
11269;SDS011;5692;48.956;9.200;2022-12-20T05:04:51;132.40;;;126.00;;
11269;SDS011;5692;48.956;9.200;2022-12-20T05:07:17;125.32;;;119.32;;
11269;SDS011;5692;48.956;9.200;2022-12-20T05:09:43;118.70;;;113.00;;
11269;SDS011;5692;48.956;9.200;2022-12-20T05:12:09;123.35;;;117.45;;
11269;SDS011;5692;48.956;9.200;2022-12-20T05:14:35;126.20;;;120.10;;
11269;SDS011;5692;48.956;9.200;2022-12-20T05:17:00;128.45;;;122.25;;
11269;SDS011;5692;48.956;9.200;2022-12-20T05:19:26;138.27;;;131.68;;
11269;SDS011;5692;48.956;9.200;2022-12-20T05:21:52;136.95;;;130.38;;
11269;SDS011;5692;48.956;9.200;2022-12-20T05:24:37;135.27;;;128.77;;
11269;SDS011;5692;48.956;9.200;2022-12-20T05:27:22;128.00;;;121.85;;
11269;SDS011;5692;48.956;9.200;2022-12-20T05:29:48;134.10;;;127.68;;
11269;SDS011;5692;48.956;9.200;2022-12-20T05:32:14;137.40;;;130.80;;
11269;SDS011;5692;48.956;9.200;2022-12-20T05:34:40;137.30;;;130.70;;
11269;SDS011;5692;48.956;9.200;2022-12-20T05:37:08;135.10;;;128.63;;
11269;SDS011;5692;48.956;9.200;2022-12-20T05:39:34;133.05;;;126.65;;
11269;SDS011;5692;48.956;9.200;2022-12-20T05:42:00;137.48;;;130.88;;
11269;SDS011;5692;48.956;9.200;2022-12-20T05:44:26;125.45;;;119.43;;
11269;SDS011;5692;48.956;9.200;2022-12-20T05:46:52;130.70;;;124.40;;
11269;SDS011;5692;48.956;9.200;2022-12-20T05:49:18;127.68;;;121.53;;
11269;SDS011;5692;48.956;9.200;2022-12-20T05:51:44;136.52;;;129.98;;
11269;SDS011;5692;48.956;9.200;2022-12-20T05:54:10;128.50;;;122.30;;
11269;SDS011;5692;48.956;9.200;2022-12-20T05:56:36;132.50;;;126.15;;
11269;SDS011;5692;48.956;9.200;2022-12-20T05:59:02;118.30;;;112.60;;
11269;SDS011;5692;48.956;9.200;2022-12-20T06:01:28;124.60;;;118.60;;
11269;SDS011;5692;48.956;9.200;2022-12-20T06:03:54;121.95;;;116.05;;
11269;SDS011;5692;48.956;9.200;2022-12-20T06:06:20;127.43;;;121.32;;
11269;SDS011;5692;48.956;9.200;2022-12-20T06:08:46;120.38;;;114.57;;
11269;SDS011;5692;48.956;9.200;2022-12-20T06:11:12;123.78;;;117.82;;
11269;SDS011;5692;48.956;9.200;2022-12-20T06:13:38;132.30;;;125.95;;
11269;SDS011;5692;48.956;9.200;2022-12-20T06:16:04;130.68;;;124.38;;
11269;SDS011;5692;48.956;9.200;2022-12-20T06:18:31;125.32;;;119.32;;
11269;SDS011;5692;48.956;9.200;2022-12-20T06:20:57;128.48;;;122.32;;
11269;SDS011;5692;48.956;9.200;2022-12-20T06:23:23;121.82;;;115.97;;
11269;SDS011;5692;48.956;9.200;2022-12-20T06:25:49;121.75;;;115.90;;
11269;SDS011;5692;48.956;9.200;2022-12-20T06:28:15;134.73;;;128.27;;
11269;SDS011;5692;48.956;9.200;2022-12-20T06:30:52;120.43;;;114.63;;
11269;SDS011;5692;48.956;9.200;2022-12-20T06:33:18;132.10;;;125.78;;
11269;SDS011;5692;48.956;9.200;2022-12-20T06:35:44;123.43;;;117.50;;
11269;SDS011;5692;48.956;9.200;2022-12-20T06:38:10;115.57;;;110.03;;
11269;SDS011;5692;48.956;9.200;2022-12-20T06:40:36;125.07;;;119.07;;
11269;SDS011;5692;48.956;9.200;2022-12-20T06:43:02;116.68;;;111.07;;
11269;SDS011;5692;48.956;9.200;2022-12-20T06:45:28;112.15;;;106.75;;
11269;SDS011;5692;48.956;9.200;2022-12-20T06:47:55;113.20;;;107.75;;
11269;SDS011;5692;48.956;9.200;2022-12-20T06:50:22;139.20;;;132.52;;
11269;SDS011;5692;48.956;9.200;2022-12-20T06:52:48;124.40;;;118.43;;
11269;SDS011;5692;48.956;9.200;2022-12-20T06:55:14;124.47;;;118.47;;
11269;SDS011;5692;48.956;9.200;2022-12-20T06:57:40;127.05;;;120.95;;
11269;SDS011;5692;48.956;9.200;2022-12-20T07:00:07;131.85;;;125.55;;
11269;SDS011;5692;48.956;9.200;2022-12-20T07:02:34;123.65;;;117.75;;
11269;SDS011;5692;48.956;9.200;2022-12-20T07:05:00;126.03;;;119.97;;
11269;SDS011;5692;48.956;9.200;2022-12-20T07:07:26;136.63;;;130.07;;
11269;SDS011;5692;48.956;9.200;2022-12-20T07:09:52;128.25;;;122.10;;
11269;SDS011;5692;48.956;9.200;2022-12-20T07:12:18;134.70;;;128.23;;
11269;SDS011;5692;48.956;9.200;2022-12-20T07:14:44;134.93;;;128.45;;
11269;SDS011;5692;48.956;9.200;2022-12-20T07:17:10;142.55;;;135.75;;
11269;SDS011;5692;48.956;9.200;2022-12-20T07:19:36;141.80;;;135.00;;
11269;SDS011;5692;48.956;9.200;2022-12-20T07:22:02;132.38;;;126.00;;
11269;SDS011;5692;48.956;9.200;2022-12-20T07:24:29;140.65;;;133.90;;
11269;SDS011;5692;48.956;9.200;2022-12-20T07:26:55;128.13;;;121.97;;
11269;SDS011;5692;48.956;9.200;2022-12-20T07:29:22;129.18;;;122.97;;
11269;SDS011;5692;48.956;9.200;2022-12-20T07:31:48;127.07;;;120.97;;
11269;SDS011;5692;48.956;9.200;2022-12-20T07:34:14;128.15;;;122.00;;
11269;SDS011;5692;48.956;9.200;2022-12-20T07:36:40;130.60;;;124.35;;
11269;SDS011;5692;48.956;9.200;2022-12-20T07:39:06;130.05;;;123.82;;
11269;SDS011;5692;48.956;9.200;2022-12-20T07:41:33;144.43;;;137.50;;
11269;SDS011;5692;48.956;9.200;2022-12-20T07:43:59;126.53;;;120.45;;
11269;SDS011;5692;48.956;9.200;2022-12-20T07:46:25;132.35;;;126.00;;
11269;SDS011;5692;48.956;9.200;2022-12-20T07:48:51;130.77;;;124.50;;
11269;SDS011;5692;48.956;9.200;2022-12-20T07:51:22;136.13;;;129.60;;
11269;SDS011;5692;48.956;9.200;2022-12-20T07:53:51;131.40;;;125.07;;
11269;SDS011;5692;48.956;9.200;2022-12-20T07:56:19;118.05;;;112.35;;
11269;SDS011;5692;48.956;9.200;2022-12-20T07:58:46;124.13;;;118.13;;
11269;SDS011;5692;48.956;9.200;2022-12-20T08:01:13;126.53;;;120.43;;
11269;SDS011;5692;48.956;9.200;2022-12-20T08:03:41;126.38;;;120.30;;
11269;SDS011;5692;48.956;9.200;2022-12-20T08:06:08;126.68;;;120.57;;
11269;SDS011;5692;48.956;9.200;2022-12-20T08:08:39;129.85;;;123.65;;
11269;SDS011;5692;48.956;9.200;2022-12-20T08:11:07;131.77;;;125.47;;
11269;SDS011;5692;48.956;9.200;2022-12-20T08:13:33;131.18;;;124.88;;
11269;SDS011;5692;48.956;9.200;2022-12-20T08:16:00;135.95;;;129.45;;
11269;SDS011;5692;48.956;9.200;2022-12-20T08:18:26;136.23;;;129.68;;
11269;SDS011;5692;48.956;9.200;2022-12-20T08:20:52;127.10;;;121.00;;
11269;SDS011;5692;48.956;9.200;2022-12-20T08:23:18;129.95;;;123.72;;
11269;SDS011;5692;48.956;9.200;2022-12-20T08:25:44;136.57;;;130.02;;
11269;SDS011;5692;48.956;9.200;2022-12-20T08:28:10;133.57;;;127.18;;
11269;SDS011;5692;48.956;9.200;2022-12-20T08:30:36;136.18;;;129.68;;
11269;SDS011;5692;48.956;9.200;2022-12-20T08:33:02;126.68;;;120.57;;
11269;SDS011;5692;48.956;9.200;2022-12-20T08:35:29;137.15;;;130.55;;
11269;SDS011;5692;48.956;9.200;2022-12-20T08:37:55;137.90;;;131.30;;
11269;SDS011;5692;48.956;9.200;2022-12-20T08:40:21;138.30;;;131.70;;
11269;SDS011;5692;48.956;9.200;2022-12-20T08:42:47;131.40;;;125.10;;
11269;SDS011;5692;48.956;9.200;2022-12-20T08:45:13;132.70;;;126.32;;
11269;SDS011;5692;48.956;9.200;2022-12-20T08:47:39;138.43;;;131.77;;
11269;SDS011;5692;48.956;9.200;2022-12-20T08:50:05;140.20;;;133.50;;
11269;SDS011;5692;48.956;9.200;2022-12-20T08:52:32;127.55;;;121.43;;
11269;SDS011;5692;48.956;9.200;2022-12-20T08:54:57;137.65;;;131.05;;
11269;SDS011;5692;48.956;9.200;2022-12-20T08:57:23;132.18;;;125.85;;
11269;SDS011;5692;48.956;9.200;2022-12-20T08:59:49;132.57;;;126.18;;
11269;SDS011;5692;48.956;9.200;2022-12-20T09:02:15;136.05;;;129.55;;
11269;SDS011;5692;48.956;9.200;2022-12-20T09:04:42;134.75;;;128.30;;
11269;SDS011;5692;48.956;9.200;2022-12-20T09:07:08;137.25;;;130.65;;
11269;SDS011;5692;48.956;9.200;2022-12-20T09:09:35;145.73;;;138.75;;
11269;SDS011;5692;48.956;9.200;2022-12-20T09:12:01;135.20;;;128.70;;
11269;SDS011;5692;48.956;9.200;2022-12-20T09:14:27;137.93;;;131.30;;
11269;SDS011;5692;48.956;9.200;2022-12-20T09:16:53;147.13;;;140.07;;
11269;SDS011;5692;48.956;9.200;2022-12-20T09:19:19;147.20;;;140.10;;
11269;SDS011;5692;48.956;9.200;2022-12-20T09:21:45;145.43;;;138.43;;
11269;SDS011;5692;48.956;9.200;2022-12-20T09:24:11;128.25;;;122.05;;
11269;SDS011;5692;48.956;9.200;2022-12-20T09:26:37;135.02;;;128.52;;
11269;SDS011;5692;48.956;9.200;2022-12-20T09:29:04;138.73;;;132.07;;
11269;SDS011;5692;48.956;9.200;2022-12-20T09:31:30;139.25;;;132.55;;
11269;SDS011;5692;48.956;9.200;2022-12-20T09:33:57;139.48;;;132.77;;
11269;SDS011;5692;48.956;9.200;2022-12-20T09:36:24;130.48;;;124.22;;
11269;SDS011;5692;48.956;9.200;2022-12-20T09:38:50;138.50;;;131.85;;
11269;SDS011;5692;48.956;9.200;2022-12-20T09:43:45;153.98;;;146.60;;
11269;SDS011;5692;48.956;9.200;2022-12-20T09:46:12;138.02;;;131.40;;
11269;SDS011;5692;48.956;9.200;2022-12-20T09:48:39;149.10;;;141.95;;
11269;SDS011;5692;48.956;9.200;2022-12-20T09:53:37;143.60;;;136.70;;
11269;SDS011;5692;48.956;9.200;2022-12-20T09:56:14;152.32;;;145.02;;
11269;SDS011;5692;48.956;9.200;2022-12-20T10:01:25;153.05;;;145.75;;
11269;SDS011;5692;48.956;9.200;2022-12-20T10:03:52;163.57;;;155.73;;
11269;SDS011;5692;48.956;9.200;2022-12-20T10:09:04;164.80;;;156.90;;
11269;SDS011;5692;48.956;9.200;2022-12-20T10:14:18;155.93;;;148.43;;
11269;SDS011;5692;48.956;9.200;2022-12-20T10:16:53;158.10;;;150.50;;
11269;SDS011;5692;48.956;9.200;2022-12-20T10:22:10;142.30;;;135.50;;
11269;SDS011;5692;48.956;9.200;2022-12-20T10:24:37;159.30;;;151.70;;
11269;SDS011;5692;48.956;9.200;2022-12-20T10:27:08;169.05;;;160.95;;
11269;SDS011;5692;48.956;9.200;2022-12-20T10:29:36;162.50;;;154.70;;
11269;SDS011;5692;48.956;9.200;2022-12-20T10:32:04;172.23;;;163.98;;
11269;SDS011;5692;48.956;9.200;2022-12-20T10:34:35;164.10;;;156.20;;
11269;SDS011;5692;48.956;9.200;2022-12-20T10:37:11;166.52;;;158.55;;
11269;SDS011;5692;48.956;9.200;2022-12-20T10:39:46;166.98;;;158.98;;
11269;SDS011;5692;48.956;9.200;2022-12-20T10:42:26;159.82;;;152.18;;
11269;SDS011;5692;48.956;9.200;2022-12-20T10:44:55;160.73;;;153.02;;
11269;SDS011;5692;48.956;9.200;2022-12-20T10:47:23;191.43;;;182.23;;
11269;SDS011;5692;48.956;9.200;2022-12-20T10:49:50;193.55;;;184.27;;
11269;SDS011;5692;48.956;9.200;2022-12-20T10:52:16;174.90;;;166.50;;
11269;SDS011;5692;48.956;9.200;2022-12-20T10:54:43;181.27;;;172.60;;
11269;SDS011;5692;48.956;9.200;2022-12-20T10:57:25;171.15;;;162.95;;
11269;SDS011;5692;48.956;9.200;2022-12-20T11:05:00;178.13;;;169.60;;
11269;SDS011;5692;48.956;9.200;2022-12-20T11:07:31;174.93;;;166.52;;
11269;SDS011;5692;48.956;9.200;2022-12-20T11:10:30;175.27;;;166.88;;
11269;SDS011;5692;48.956;9.200;2022-12-20T11:12:53;169.38;;;161.27;;
11269;SDS011;5692;48.956;9.200;2022-12-20T11:15:20;172.57;;;164.27;;
11269;SDS011;5692;48.956;9.200;2022-12-20T11:17:47;182.82;;;174.05;;
11269;SDS011;5692;48.956;9.200;2022-12-20T11:22:50;182.80;;;174.05;;
11269;SDS011;5692;48.956;9.200;2022-12-20T11:30:18;168.50;;;160.40;;
11269;SDS011;5692;48.956;9.200;2022-12-20T11:40:46;175.43;;;167.02;;
11269;SDS011;5692;48.956;9.200;2022-12-20T11:43:24;165.23;;;157.30;;
11269;SDS011;5692;48.956;9.200;2022-12-20T11:51:02;176.80;;;168.32;;
11269;SDS011;5692;48.956;9.200;2022-12-20T11:56:00;170.50;;;162.35;;
11269;SDS011;5692;48.956;9.200;2022-12-20T12:01:03;165.10;;;157.20;;
11269;SDS011;5692;48.956;9.200;2022-12-20T12:03:36;169.40;;;161.25;;
11269;SDS011;5692;48.956;9.200;2022-12-20T12:06:03;165.15;;;157.25;;
11269;SDS011;5692;48.956;9.200;2022-12-20T12:08:43;151.80;;;144.50;;
11269;SDS011;5692;48.956;9.200;2022-12-20T12:11:16;162.20;;;154.40;;
11269;SDS011;5692;48.956;9.200;2022-12-20T12:13:43;171.00;;;162.80;;
11269;SDS011;5692;48.956;9.200;2022-12-20T12:16:23;166.30;;;158.32;;
11269;SDS011;5692;48.956;9.200;2022-12-20T12:18:51;164.65;;;156.75;;
11269;SDS011;5692;48.956;9.200;2022-12-20T12:26:37;177.57;;;169.07;;
11269;SDS011;5692;48.956;9.200;2022-12-20T12:31:44;159.43;;;151.80;;
11269;SDS011;5692;48.956;9.200;2022-12-20T12:39:57;168.93;;;160.85;;
11269;SDS011;5692;48.956;9.200;2022-12-20T12:45:04;180.30;;;171.68;;
11269;SDS011;5692;48.956;9.200;2022-12-20T12:47:39;174.23;;;165.88;;
11269;SDS011;5692;48.956;9.200;2022-12-20T12:50:15;172.27;;;164.02;;
11269;SDS011;5692;48.956;9.200;2022-12-20T12:52:53;174.90;;;166.55;;
11269;SDS011;5692;48.956;9.200;2022-12-20T12:55:39;161.05;;;153.32;;
11269;SDS011;5692;48.956;9.200;2022-12-20T13:00:48;175.77;;;167.35;;
11269;SDS011;5692;48.956;9.200;2022-12-20T13:03:15;175.88;;;167.48;;
11269;SDS011;5692;48.956;9.200;2022-12-20T13:05:41;161.32;;;153.57;;
11269;SDS011;5692;48.956;9.200;2022-12-20T13:08:14;169.27;;;161.18;;
11269;SDS011;5692;48.956;9.200;2022-12-20T13:13:41;162.23;;;154.48;;
11269;SDS011;5692;48.956;9.200;2022-12-20T13:16:04;176.60;;;168.15;;
11269;SDS011;5692;48.956;9.200;2022-12-20T13:18:31;164.02;;;156.13;;
11269;SDS011;5692;48.956;9.200;2022-12-20T13:21:16;169.00;;;160.90;;
11269;SDS011;5692;48.956;9.200;2022-12-20T13:23:42;179.20;;;170.60;;
11269;SDS011;5692;48.956;9.200;2022-12-20T13:26:41;177.50;;;169.00;;
11269;SDS011;5692;48.956;9.200;2022-12-20T13:29:22;183.13;;;174.35;;
11269;SDS011;5692;48.956;9.200;2022-12-20T13:31:48;182.07;;;173.38;;
11269;SDS011;5692;48.956;9.200;2022-12-20T13:36:59;168.98;;;160.88;;
11269;SDS011;5692;48.956;9.200;2022-12-20T13:39:29;170.60;;;162.43;;
11269;SDS011;5692;48.956;9.200;2022-12-20T13:42:19;171.82;;;163.60;;
11269;SDS011;5692;48.956;9.200;2022-12-20T13:44:47;167.57;;;159.55;;
11269;SDS011;5692;48.956;9.200;2022-12-20T13:49:41;183.83;;;175.03;;
11269;SDS011;5692;48.956;9.200;2022-12-20T13:52:11;172.05;;;163.80;;
11269;SDS011;5692;48.956;9.200;2022-12-20T13:54:44;165.23;;;157.32;;
11269;SDS011;5692;48.956;9.200;2022-12-20T13:57:14;164.75;;;156.85;;
11269;SDS011;5692;48.956;9.200;2022-12-20T13:59:42;177.93;;;169.43;;
11269;SDS011;5692;48.956;9.200;2022-12-20T14:02:10;167.80;;;159.75;;
11269;SDS011;5692;48.956;9.200;2022-12-20T14:04:43;167.30;;;159.30;;
11269;SDS011;5692;48.956;9.200;2022-12-20T14:07:12;179.90;;;171.30;;
11269;SDS011;5692;48.956;9.200;2022-12-20T14:09:43;167.50;;;159.48;;
11269;SDS011;5692;48.956;9.200;2022-12-20T14:12:13;179.13;;;170.52;;
11269;SDS011;5692;48.956;9.200;2022-12-20T14:14:43;160.38;;;152.68;;
11269;SDS011;5692;48.956;9.200;2022-12-20T14:17:29;174.35;;;166.00;;
11269;SDS011;5692;48.956;9.200;2022-12-20T14:22:28;164.63;;;156.73;;
11269;SDS011;5692;48.956;9.200;2022-12-20T14:24:55;172.32;;;164.07;;
11269;SDS011;5692;48.956;9.200;2022-12-20T14:27:21;167.27;;;159.27;;
11269;SDS011;5692;48.956;9.200;2022-12-20T14:29:47;169.40;;;161.30;;
11269;SDS011;5692;48.956;9.200;2022-12-20T14:32:17;164.20;;;156.30;;
11269;SDS011;5692;48.956;9.200;2022-12-20T14:34:44;164.80;;;156.90;;
11269;SDS011;5692;48.956;9.200;2022-12-20T14:37:23;169.30;;;161.20;;
11269;SDS011;5692;48.956;9.200;2022-12-20T14:40:36;178.27;;;169.77;;
11269;SDS011;5692;48.956;9.200;2022-12-20T14:42:40;167.75;;;159.73;;
11269;SDS011;5692;48.956;9.200;2022-12-20T14:47:35;168.30;;;160.20;;
11269;SDS011;5692;48.956;9.200;2022-12-20T14:50:03;179.25;;;170.65;;
11269;SDS011;5692;48.956;9.200;2022-12-20T14:52:36;174.50;;;166.13;;
11269;SDS011;5692;48.956;9.200;2022-12-20T14:55:19;162.70;;;154.90;;
11269;SDS011;5692;48.956;9.200;2022-12-20T14:57:52;177.07;;;168.60;;
11269;SDS011;5692;48.956;9.200;2022-12-20T15:00:29;172.27;;;164.02;;
11269;SDS011;5692;48.956;9.200;2022-12-20T15:08:08;178.35;;;169.80;;
11269;SDS011;5692;48.956;9.200;2022-12-20T15:10:34;169.40;;;161.30;;
11269;SDS011;5692;48.956;9.200;2022-12-20T15:13:00;174.23;;;165.88;;
11269;SDS011;5692;48.956;9.200;2022-12-20T15:15:26;153.23;;;145.90;;
11269;SDS011;5692;48.956;9.200;2022-12-20T15:17:52;173.80;;;165.48;;
11269;SDS011;5692;48.956;9.200;2022-12-20T15:20:18;156.85;;;149.32;;
11269;SDS011;5692;48.956;9.200;2022-12-20T15:22:45;153.85;;;146.45;;
11269;SDS011;5692;48.956;9.200;2022-12-20T15:25:14;160.27;;;152.57;;
11269;SDS011;5692;48.956;9.200;2022-12-20T15:27:41;156.05;;;148.55;;
11269;SDS011;5692;48.956;9.200;2022-12-20T15:30:10;169.15;;;161.05;;
11269;SDS011;5692;48.956;9.200;2022-12-20T15:32:37;162.93;;;155.13;;
11269;SDS011;5692;48.956;9.200;2022-12-20T15:35:04;174.38;;;166.02;;
11269;SDS011;5692;48.956;9.200;2022-12-20T15:37:30;160.65;;;152.95;;
11269;SDS011;5692;48.956;9.200;2022-12-20T15:39:56;159.20;;;151.55;;
11269;SDS011;5692;48.956;9.200;2022-12-20T15:42:22;159.48;;;151.82;;
11269;SDS011;5692;48.956;9.200;2022-12-20T15:44:49;171.30;;;163.10;;
11269;SDS011;5692;48.956;9.200;2022-12-20T15:47:15;153.50;;;146.13;;
11269;SDS011;5692;48.956;9.200;2022-12-20T15:49:41;150.90;;;143.68;;
11269;SDS011;5692;48.956;9.200;2022-12-20T15:52:09;155.18;;;147.73;;
11269;SDS011;5692;48.956;9.200;2022-12-20T15:54:41;166.23;;;158.27;;